sensor_id;sensor_type;location;lat;lon;timestamp;temperature;humidity
73833;SHT30;62179;48.444;-4.464;2023-02-20T06:08:13;10.62;74.15
73833;SHT30;62179;48.444;-4.464;2023-02-20T06:10:38;10.59;74.58
73833;SHT30;62179;48.444;-4.464;2023-02-20T06:13:04;10.61;74.60
73833;SHT30;62179;48.444;-4.464;2023-02-20T06:15:29;10.61;74.71
73833;SHT30;62179;48.444;-4.464;2023-02-20T06:17:55;10.61;74.37
73833;SHT30;62179;48.444;-4.464;2023-02-20T06:20:20;10.61;74.06
73833;SHT30;62179;48.444;-4.464;2023-02-20T06:22:50;10.61;74.43
73833;SHT30;62179;48.444;-4.464;2023-02-20T06:25:15;10.61;73.98
73833;SHT30;62179;48.444;-4.464;2023-02-20T06:27:41;10.61;73.84
73833;SHT30;62179;48.444;-4.464;2023-02-20T06:30:07;10.62;73.96
73833;SHT30;62179;48.444;-4.464;2023-02-20T06:32:33;10.62;74.02
73833;SHT30;62179;48.444;-4.464;2023-02-20T06:34:58;10.65;74.03
73833;SHT30;62179;48.444;-4.464;2023-02-20T06:37:24;10.59;73.81
73833;SHT30;62179;48.444;-4.464;2023-02-20T06:39:49;10.62;74.12
73833;SHT30;62179;48.444;-4.464;2023-02-20T06:42:15;10.63;74.00
73833;SHT30;62179;48.444;-4.464;2023-02-20T06:44:40;10.62;74.06
73833;SHT30;62179;48.444;-4.464;2023-02-20T06:47:06;10.63;74.16
73833;SHT30;62179;48.444;-4.464;2023-02-20T06:49:37;10.65;73.91
73833;SHT30;62179;48.444;-4.464;2023-02-20T06:52:03;10.62;73.89
73833;SHT30;62179;48.444;-4.464;2023-02-20T06:54:29;10.61;73.81
73833;SHT30;62179;48.444;-4.464;2023-02-20T06:56:54;10.63;73.78
73833;SHT30;62179;48.444;-4.464;2023-02-20T06:59:22;10.63;73.81
73833;SHT30;62179;48.444;-4.464;2023-02-20T07:01:47;10.63;73.78
73833;SHT30;62179;48.444;-4.464;2023-02-20T07:04:18;10.59;73.68
73833;SHT30;62179;48.444;-4.464;2023-02-20T07:06:44;10.61;73.87
73833;SHT30;62179;48.444;-4.464;2023-02-20T07:09:11;10.59;73.68
73833;SHT30;62179;48.444;-4.464;2023-02-20T07:11:36;10.58;73.06
73833;SHT30;62179;48.444;-4.464;2023-02-20T07:14:02;10.58;73.65
73833;SHT30;62179;48.444;-4.464;2023-02-20T07:16:27;10.55;73.70
73833;SHT30;62179;48.444;-4.464;2023-02-20T07:18:52;10.55;74.14
73833;SHT30;62179;48.444;-4.464;2023-02-20T07:21:18;10.53;73.54
73833;SHT30;62179;48.444;-4.464;2023-02-20T07:23:44;10.56;73.84
73833;SHT30;62179;48.444;-4.464;2023-02-20T07:26:23;10.56;73.91
73833;SHT30;62179;48.444;-4.464;2023-02-20T07:28:50;10.55;74.03
73833;SHT30;62179;48.444;-4.464;2023-02-20T07:31:15;10.55;74.05
73833;SHT30;62179;48.444;-4.464;2023-02-20T07:33:40;10.55;74.00
73833;SHT30;62179;48.444;-4.464;2023-02-20T07:36:10;10.56;73.89
73833;SHT30;62179;48.444;-4.464;2023-02-20T07:38:36;10.59;73.40
73833;SHT30;62179;48.444;-4.464;2023-02-20T07:41:02;10.58;73.41
73833;SHT30;62179;48.444;-4.464;2023-02-20T07:43:28;10.59;74.03
73833;SHT30;62179;48.444;-4.464;2023-02-20T07:45:53;10.55;73.37
73833;SHT30;62179;48.444;-4.464;2023-02-20T07:48:19;10.56;73.30
73833;SHT30;62179;48.444;-4.464;2023-02-20T07:50:44;10.58;73.93
73833;SHT30;62179;48.444;-4.464;2023-02-20T07:53:13;10.61;74.00
73833;SHT30;62179;48.444;-4.464;2023-02-20T07:55:39;10.61;73.78
73833;SHT30;62179;48.444;-4.464;2023-02-20T07:58:06;10.58;73.45
73833;SHT30;62179;48.444;-4.464;2023-02-20T08:00:33;10.59;73.44
73833;SHT30;62179;48.444;-4.464;2023-02-20T08:02:58;10.62;72.80
73833;SHT30;62179;48.444;-4.464;2023-02-20T08:05:24;10.61;73.16
73833;SHT30;62179;48.444;-4.464;2023-02-20T08:07:50;10.62;73.05
73833;SHT30;62179;48.444;-4.464;2023-02-20T08:10:24;10.61;73.08
73833;SHT30;62179;48.444;-4.464;2023-02-20T08:12:51;10.61;72.79
73833;SHT30;62179;48.444;-4.464;2023-02-20T08:15:17;10.63;72.69
73833;SHT30;62179;48.444;-4.464;2023-02-20T08:17:43;10.65;73.26
73833;SHT30;62179;48.444;-4.464;2023-02-20T08:20:09;10.66;72.92
73833;SHT30;62179;48.444;-4.464;2023-02-20T08:22:35;10.73;73.20
73833;SHT30;62179;48.444;-4.464;2023-02-20T08:25:00;10.75;71.66
73833;SHT30;62179;48.444;-4.464;2023-02-20T15:44:37;11.60;69.10
73833;SHT30;62179;48.444;-4.464;2023-02-20T15:47:02;11.58;69.26
73833;SHT30;62179;48.444;-4.464;2023-02-20T15:49:28;11.55;68.76
73833;SHT30;62179;48.444;-4.464;2023-02-20T15:51:53;11.58;69.88
73833;SHT30;62179;48.444;-4.464;2023-02-20T15:54:19;11.58;69.31
73833;SHT30;62179;48.444;-4.464;2023-02-20T15:56:45;11.58;69.43
73833;SHT30;62179;48.444;-4.464;2023-02-20T15:59:12;11.55;69.24
73833;SHT30;62179;48.444;-4.464;2023-02-20T16:01:38;11.52;69.22
73833;SHT30;62179;48.444;-4.464;2023-02-20T16:04:07;11.51;68.97
73833;SHT30;62179;48.444;-4.464;2023-02-20T16:06:34;11.50;69.07
73833;SHT30;62179;48.444;-4.464;2023-02-20T16:08:59;11.51;69.07
73833;SHT30;62179;48.444;-4.464;2023-02-20T16:11:30;11.48;68.74
73833;SHT30;62179;48.444;-4.464;2023-02-20T16:13:59;11.50;69.16
73833;SHT30;62179;48.444;-4.464;2023-02-20T16:16:35;11.48;68.98
73833;SHT30;62179;48.444;-4.464;2023-02-20T16:19:02;11.45;68.82
73833;SHT30;62179;48.444;-4.464;2023-02-20T16:21:29;11.47;69.08
73833;SHT30;62179;48.444;-4.464;2023-02-20T16:23:54;11.47;69.16
73833;SHT30;62179;48.444;-4.464;2023-02-20T16:26:23;11.51;69.75
73833;SHT30;62179;48.444;-4.464;2023-02-20T16:28:58;11.55;69.59
73833;SHT30;62179;48.444;-4.464;2023-02-20T16:34:18;11.54;68.56
73833;SHT30;62179;48.444;-4.464;2023-02-20T16:36:43;11.51;68.76
73833;SHT30;62179;48.444;-4.464;2023-02-20T16:39:09;11.50;68.87
73833;SHT30;62179;48.444;-4.464;2023-02-20T16:41:34;11.51;68.97
73833;SHT30;62179;48.444;-4.464;2023-02-20T16:44:00;11.51;69.00
73833;SHT30;62179;48.444;-4.464;2023-02-20T16:46:26;11.52;69.12
73833;SHT30;62179;48.444;-4.464;2023-02-20T16:48:51;11.54;69.08
73833;SHT30;62179;48.444;-4.464;2023-02-20T16:51:18;11.54;69.62
73833;SHT30;62179;48.444;-4.464;2023-02-20T16:53:46;11.58;69.87
73833;SHT30;62179;48.444;-4.464;2023-02-20T16:56:12;11.57;70.13
73833;SHT30;62179;48.444;-4.464;2023-02-20T16:58:37;11.52;70.12
73833;SHT30;62179;48.444;-4.464;2023-02-20T17:01:03;11.54;70.22
73833;SHT30;62179;48.444;-4.464;2023-02-20T17:03:28;11.52;70.28
73833;SHT30;62179;48.444;-4.464;2023-02-20T17:05:54;11.51;70.51
73833;SHT30;62179;48.444;-4.464;2023-02-20T17:08:26;11.50;70.71
73833;SHT30;62179;48.444;-4.464;2023-02-20T17:10:52;11.47;70.78
73833;SHT30;62179;48.444;-4.464;2023-02-20T17:13:17;11.50;70.69
73833;SHT30;62179;48.444;-4.464;2023-02-20T17:15:43;11.45;70.86
73833;SHT30;62179;48.444;-4.464;2023-02-20T17:18:09;11.40;71.07
73833;SHT30;62179;48.444;-4.464;2023-02-20T17:20:34;11.40;71.79
73833;SHT30;62179;48.444;-4.464;2023-02-20T17:23:01;11.35;72.03
73833;SHT30;62179;48.444;-4.464;2023-02-20T17:25:30;11.34;72.22
73833;SHT30;62179;48.444;-4.464;2023-02-20T17:27:56;11.30;72.35
73833;SHT30;62179;48.444;-4.464;2023-02-20T17:30:23;11.28;72.32
73833;SHT30;62179;48.444;-4.464;2023-02-20T17:32:50;11.26;72.37
73833;SHT30;62179;48.444;-4.464;2023-02-20T17:35:16;11.20;72.53
73833;SHT30;62179;48.444;-4.464;2023-02-20T17:37:42;11.17;72.59
73833;SHT30;62179;48.444;-4.464;2023-02-20T17:40:08;11.11;72.63
73833;SHT30;62179;48.444;-4.464;2023-02-20T17:42:34;11.07;72.59
73833;SHT30;62179;48.444;-4.464;2023-02-20T17:44:59;11.04;72.63
73833;SHT30;62179;48.444;-4.464;2023-02-20T17:47:25;10.99;72.74
73833;SHT30;62179;48.444;-4.464;2023-02-20T17:49:52;10.96;72.63
73833;SHT30;62179;48.444;-4.464;2023-02-20T17:52:18;10.93;72.62
73833;SHT30;62179;48.444;-4.464;2023-02-20T17:54:49;10.88;72.71
73833;SHT30;62179;48.444;-4.464;2023-02-20T17:57:17;10.82;72.88
73833;SHT30;62179;48.444;-4.464;2023-02-20T17:59:46;10.77;72.86
73833;SHT30;62179;48.444;-4.464;2023-02-20T18:02:13;10.73;72.93
73833;SHT30;62179;48.444;-4.464;2023-02-20T18:04:42;10.69;73.06
73833;SHT30;62179;48.444;-4.464;2023-02-20T18:07:09;10.65;73.12
73833;SHT30;62179;48.444;-4.464;2023-02-20T18:09:35;10.59;73.35
73833;SHT30;62179;48.444;-4.464;2023-02-20T18:12:02;10.55;73.35
73833;SHT30;62179;48.444;-4.464;2023-02-20T18:14:28;10.49;73.26
73833;SHT30;62179;48.444;-4.464;2023-02-20T18:16:54;10.49;73.26
73833;SHT30;62179;48.444;-4.464;2023-02-20T18:19:19;10.40;73.33
73833;SHT30;62179;48.444;-4.464;2023-02-20T18:21:45;10.35;73.44
73833;SHT30;62179;48.444;-4.464;2023-02-20T18:24:18;10.31;73.59
73833;SHT30;62179;48.444;-4.464;2023-02-20T18:26:44;10.30;73.48
73833;SHT30;62179;48.444;-4.464;2023-02-20T18:29:10;10.22;73.88
73833;SHT30;62179;48.444;-4.464;2023-02-20T18:31:36;10.22;73.93
73833;SHT30;62179;48.444;-4.464;2023-02-20T18:34:01;10.17;74.33
73833;SHT30;62179;48.444;-4.464;2023-02-20T18:36:28;10.17;74.32
73833;SHT30;62179;48.444;-4.464;2023-02-20T18:38:57;10.15;74.35
73833;SHT30;62179;48.444;-4.464;2023-02-20T18:41:24;10.13;74.31
73833;SHT30;62179;48.444;-4.464;2023-02-20T18:43:49;10.13;74.31
73833;SHT30;62179;48.444;-4.464;2023-02-20T18:46:32;10.10;74.44
73833;SHT30;62179;48.444;-4.464;2023-02-20T18:48:58;10.10;74.66
73833;SHT30;62179;48.444;-4.464;2023-02-20T18:51:29;10.08;74.84
73833;SHT30;62179;48.444;-4.464;2023-02-20T18:53:55;10.07;74.91
73833;SHT30;62179;48.444;-4.464;2023-02-20T18:56:22;10.11;75.10
73833;SHT30;62179;48.444;-4.464;2023-02-20T18:58:47;10.08;75.29
73833;SHT30;62179;48.444;-4.464;2023-02-20T19:01:14;10.07;75.30
73833;SHT30;62179;48.444;-4.464;2023-02-20T19:03:44;10.05;75.60
73833;SHT30;62179;48.444;-4.464;2023-02-20T19:06:10;10.01;75.94
73833;SHT30;62179;48.444;-4.464;2023-02-20T19:08:36;10.01;75.99
73833;SHT30;62179;48.444;-4.464;2023-02-20T19:11:01;10.03;76.14
73833;SHT30;62179;48.444;-4.464;2023-02-20T19:13:27;10.01;76.31
73833;SHT30;62179;48.444;-4.464;2023-02-20T19:15:52;10.00;76.27
73833;SHT30;62179;48.444;-4.464;2023-02-20T19:18:18;10.01;76.24
73833;SHT30;62179;48.444;-4.464;2023-02-20T19:20:43;10.05;76.24
73833;SHT30;62179;48.444;-4.464;2023-02-20T19:23:08;10.07;76.05
73833;SHT30;62179;48.444;-4.464;2023-02-20T19:25:34;10.10;76.08
73833;SHT30;62179;48.444;-4.464;2023-02-20T19:27:59;10.11;76.31
73833;SHT30;62179;48.444;-4.464;2023-02-20T19:30:25;10.11;76.27
73833;SHT30;62179;48.444;-4.464;2023-02-20T19:32:50;10.13;76.24
73833;SHT30;62179;48.444;-4.464;2023-02-20T19:35:16;10.08;76.75
73833;SHT30;62179;48.444;-4.464;2023-02-20T19:37:42;10.08;76.72
73833;SHT30;62179;48.444;-4.464;2023-02-20T19:40:09;10.07;76.60
73833;SHT30;62179;48.444;-4.464;2023-02-20T19:42:35;10.05;76.82
73833;SHT30;62179;48.444;-4.464;2023-02-20T19:45:00;9.97;77.16
73833;SHT30;62179;48.444;-4.464;2023-02-20T19:47:26;9.98;77.04
73833;SHT30;62179;48.444;-4.464;2023-02-20T19:49:52;10.01;77.11
73833;SHT30;62179;48.444;-4.464;2023-02-20T19:52:18;10.00;77.01
73833;SHT30;62179;48.444;-4.464;2023-02-20T19:54:45;9.97;77.10
73833;SHT30;62179;48.444;-4.464;2023-02-20T19:57:12;9.95;77.11
73833;SHT30;62179;48.444;-4.464;2023-02-20T19:59:38;10.00;77.28
73833;SHT30;62179;48.444;-4.464;2023-02-20T20:02:04;10.01;76.99
73833;SHT30;62179;48.444;-4.464;2023-02-20T20:04:31;10.01;76.97
73833;SHT30;62179;48.444;-4.464;2023-02-20T20:06:57;10.07;76.92
73833;SHT30;62179;48.444;-4.464;2023-02-20T20:09:25;10.03;77.13
73833;SHT30;62179;48.444;-4.464;2023-02-20T20:11:52;9.98;76.90
73833;SHT30;62179;48.444;-4.464;2023-02-20T20:14:18;10.00;77.11
73833;SHT30;62179;48.444;-4.464;2023-02-20T20:16:45;9.90;77.54
73833;SHT30;62179;48.444;-4.464;2023-02-20T20:19:11;9.84;77.38
73833;SHT30;62179;48.444;-4.464;2023-02-20T20:21:37;9.84;77.39
73833;SHT30;62179;48.444;-4.464;2023-02-20T20:24:05;9.91;77.30
73833;SHT30;62179;48.444;-4.464;2023-02-20T20:26:35;9.80;77.48
73833;SHT30;62179;48.444;-4.464;2023-02-20T20:29:01;9.79;77.48
73833;SHT30;62179;48.444;-4.464;2023-02-20T20:31:32;9.73;77.67
73833;SHT30;62179;48.444;-4.464;2023-02-20T20:33:57;9.76;77.55
73833;SHT30;62179;48.444;-4.464;2023-02-20T20:36:23;9.79;77.58
73833;SHT30;62179;48.444;-4.464;2023-02-20T20:38:48;9.79;77.57
73833;SHT30;62179;48.444;-4.464;2023-02-20T20:41:14;9.79;77.44
73833;SHT30;62179;48.444;-4.464;2023-02-20T20:43:44;9.74;77.60
73833;SHT30;62179;48.444;-4.464;2023-02-20T20:46:11;9.77;77.66
73833;SHT30;62179;48.444;-4.464;2023-02-20T20:48:40;9.76;77.59
73833;SHT30;62179;48.444;-4.464;2023-02-20T20:51:05;9.84;77.58
73833;SHT30;62179;48.444;-4.464;2023-02-20T20:53:31;9.84;77.71
73833;SHT30;62179;48.444;-4.464;2023-02-20T20:55:56;9.86;77.81
73833;SHT30;62179;48.444;-4.464;2023-02-20T20:58:22;9.86;77.82
73833;SHT30;62179;48.444;-4.464;2023-02-20T21:00:47;9.83;78.07
73833;SHT30;62179;48.444;-4.464;2023-02-20T21:03:13;9.83;78.08
73833;SHT30;62179;48.444;-4.464;2023-02-20T21:05:40;9.84;77.79
73833;SHT30;62179;48.444;-4.464;2023-02-20T21:08:06;9.82;78.35
73833;SHT30;62179;48.444;-4.464;2023-02-20T21:10:32;9.80;77.94
73833;SHT30;62179;48.444;-4.464;2023-02-20T21:12:58;9.79;78.15
73833;SHT30;62179;48.444;-4.464;2023-02-20T21:15:24;9.79;78.36
73833;SHT30;62179;48.444;-4.464;2023-02-20T21:17:51;9.76;78.71
73833;SHT30;62179;48.444;-4.464;2023-02-20T21:20:20;9.72;78.64
73833;SHT30;62179;48.444;-4.464;2023-02-20T21:22:46;9.69;79.06
73833;SHT30;62179;48.444;-4.464;2023-02-20T21:25:12;9.66;79.01
73833;SHT30;62179;48.444;-4.464;2023-02-20T21:27:37;9.67;78.88
73833;SHT30;62179;48.444;-4.464;2023-02-20T21:30:04;9.67;78.97
73833;SHT30;62179;48.444;-4.464;2023-02-20T21:32:30;9.67;78.98
73833;SHT30;62179;48.444;-4.464;2023-02-20T21:34:56;9.67;79.22
73833;SHT30;62179;48.444;-4.464;2023-02-20T21:37:21;9.66;79.41
73833;SHT30;62179;48.444;-4.464;2023-02-20T21:39:47;9.67;78.99
73833;SHT30;62179;48.444;-4.464;2023-02-20T21:42:12;9.67;79.35
73833;SHT30;62179;48.444;-4.464;2023-02-20T21:44:56;9.73;79.17
73833;SHT30;62179;48.444;-4.464;2023-02-20T21:47:21;9.70;78.95
73833;SHT30;62179;48.444;-4.464;2023-02-20T21:49:47;9.66;79.25
73833;SHT30;62179;48.444;-4.464;2023-02-20T21:52:15;9.62;79.16
73833;SHT30;62179;48.444;-4.464;2023-02-20T21:54:46;9.63;79.15
73833;SHT30;62179;48.444;-4.464;2023-02-20T21:57:12;9.57;79.50
73833;SHT30;62179;48.444;-4.464;2023-02-20T21:59:37;9.59;79.29
73833;SHT30;62179;48.444;-4.464;2023-02-20T22:02:03;9.63;79.03
73833;SHT30;62179;48.444;-4.464;2023-02-20T22:04:28;9.64;79.23
73833;SHT30;62179;48.444;-4.464;2023-02-20T22:06:53;9.63;79.16
73833;SHT30;62179;48.444;-4.464;2023-02-20T22:09:37;9.66;79.06
73833;SHT30;62179;48.444;-4.464;2023-02-20T22:12:21;9.67;79.11
73833;SHT30;62179;48.444;-4.464;2023-02-20T22:15:06;9.66;79.07
73833;SHT30;62179;48.444;-4.464;2023-02-20T22:17:50;9.72;79.10
73833;SHT30;62179;48.444;-4.464;2023-02-20T22:20:34;9.73;78.90
73833;SHT30;62179;48.444;-4.464;2023-02-20T22:23:18;9.76;78.75
73833;SHT30;62179;48.444;-4.464;2023-02-20T22:26:02;9.67;78.93
73833;SHT30;62179;48.444;-4.464;2023-02-20T22:28:45;9.63;78.96
73833;SHT30;62179;48.444;-4.464;2023-02-20T22:31:30;9.59;79.12
73833;SHT30;62179;48.444;-4.464;2023-02-20T22:34:14;9.53;79.08
73833;SHT30;62179;48.444;-4.464;2023-02-20T22:36:58;9.55;79.12
73833;SHT30;62179;48.444;-4.464;2023-02-20T22:39:42;9.55;79.25
73833;SHT30;62179;48.444;-4.464;2023-02-20T22:42:26;9.53;79.29
73833;SHT30;62179;48.444;-4.464;2023-02-20T22:45:10;9.49;79.21
73833;SHT30;62179;48.444;-4.464;2023-02-20T22:47:54;9.46;79.29
73833;SHT30;62179;48.444;-4.464;2023-02-20T22:50:38;9.52;79.09
73833;SHT30;62179;48.444;-4.464;2023-02-20T22:53:22;9.52;79.37
73833;SHT30;62179;48.444;-4.464;2023-02-20T22:56:06;9.52;79.40
73833;SHT30;62179;48.444;-4.464;2023-02-20T22:58:50;9.55;79.39
73833;SHT30;62179;48.444;-4.464;2023-02-20T23:01:34;9.55;79.40
73833;SHT30;62179;48.444;-4.464;2023-02-20T23:04:18;9.57;79.04
73833;SHT30;62179;48.444;-4.464;2023-02-20T23:07:02;9.64;78.96
73833;SHT30;62179;48.444;-4.464;2023-02-20T23:09:46;9.64;78.93
73833;SHT30;62179;48.444;-4.464;2023-02-20T23:12:30;9.66;78.87
73833;SHT30;62179;48.444;-4.464;2023-02-20T23:15:14;9.69;78.86
73833;SHT30;62179;48.444;-4.464;2023-02-20T23:17:58;9.67;78.93
73833;SHT30;62179;48.444;-4.464;2023-02-20T23:20:41;9.70;78.91
73833;SHT30;62179;48.444;-4.464;2023-02-20T23:23:26;9.70;78.89
73833;SHT30;62179;48.444;-4.464;2023-02-20T23:26:10;9.74;78.51
73833;SHT30;62179;48.444;-4.464;2023-02-20T23:28:54;9.69;78.51
73833;SHT30;62179;48.444;-4.464;2023-02-20T23:31:42;9.66;78.64
73833;SHT30;62179;48.444;-4.464;2023-02-20T23:34:28;9.60;78.88
73833;SHT30;62179;48.444;-4.464;2023-02-20T23:37:13;9.55;79.11
73833;SHT30;62179;48.444;-4.464;2023-02-20T23:39:58;9.53;79.00
73833;SHT30;62179;48.444;-4.464;2023-02-20T23:42:42;9.56;78.94
73833;SHT30;62179;48.444;-4.464;2023-02-20T23:45:26;9.60;78.71
73833;SHT30;62179;48.444;-4.464;2023-02-20T23:48:11;9.63;78.50
73833;SHT30;62179;48.444;-4.464;2023-02-20T23:50:56;9.63;78.58
73833;SHT30;62179;48.444;-4.464;2023-02-20T23:53:40;9.62;78.65
73833;SHT30;62179;48.444;-4.464;2023-02-20T23:56:25;9.57;78.77
73833;SHT30;62179;48.444;-4.464;2023-02-20T23:59:10;9.60;78.66
